Time;durP1;ratioP1;P1;durP2;ratioP2;P2;SDS_P1;SDS_P2;PMS_P1;PMS_P2;Temp;Humidity;BMP_temperature;BMP_pressure;BME280_temperature;BME280_humidity;BME280_pressure;Samples;Min_cycle;Max_cycle;Signal;HPM_P1;HPM_P2
2022/01/10 00:02:48;;;;;;;4.70;3.40;;;;;;;1.29;100.00;93850.13;4976647;28;20924;-74
2022/01/10 00:05:35;;;;;;;3.17;2.07;;;;;;;1.15;100.00;93851.25;4988289;28;20259;-74
2022/01/10 00:08:20;;;;;;;5.23;2.00;;;;;;;1.01;100.00;93851.63;4973723;28;20203;-74
2022/01/10 00:11:06;;;;;;;5.70;2.87;;;;;;;0.95;100.00;93857.94;4977111;28;20259;-74
2022/01/10 00:13:52;;;;;;;12.03;4.60;;;;;;;1.06;100.00;93848.41;4987460;28;20704;-74
2022/01/10 00:16:38;;;;;;;17.63;6.27;;;;;;;0.80;100.00;93844.06;4991129;28;20283;-75
2022/01/10 00:19:24;;;;;;;14.00;5.80;;;;;;;0.83;100.00;93853.97;4987339;28;20250;-74
2022/01/10 00:22:11;;;;;;;7.60;3.17;;;;;;;1.04;100.00;93871.50;4994573;28;20507;-75
2022/01/10 00:24:57;;;;;;;7.00;2.77;;;;;;;1.07;100.00;93866.06;4989079;28;20702;-74
2022/01/10 00:27:43;;;;;;;3.60;1.90;;;;;;;1.03;100.00;93872.69;4976568;28;20196;-73
2022/01/10 00:30:29;;;;;;;4.40;1.93;;;;;;;1.06;100.00;93877.22;4989581;28;20211;-73
2022/01/10 00:33:15;;;;;;;8.93;3.33;;;;;;;1.19;100.00;93872.66;4987118;28;20291;-74
2022/01/10 00:36:01;;;;;;;4.40;2.30;;;;;;;1.28;100.00;93870.16;4975922;28;20670;-74
2022/01/10 00:38:47;;;;;;;4.40;2.17;;;;;;;1.18;100.00;93871.16;4987813;28;20616;-74
2022/01/10 00:41:33;;;;;;;6.00;2.57;;;;;;;1.26;100.00;93861.00;4986156;28;20201;-73
2022/01/10 00:44:25;;;;;;;5.30;2.10;;;;;;;1.23;100.00;93867.97;4983172;28;20254;-73
2022/01/10 00:47:11;;;;;;;4.40;2.30;;;;;;;1.05;100.00;93865.72;4988973;28;20193;-73
2022/01/10 00:49:57;;;;;;;6.00;2.67;;;;;;;0.86;100.00;93869.25;4974215;28;20200;-73
2022/01/10 00:58:48;;;;;;;5.40;2.43;;;;;;;0.93;100.00;93882.50;5685545;23;21078;-75
2022/01/10 01:01:35;;;;;;;4.87;1.70;;;;;;;1.04;100.00;93876.88;5030759;28;20236;-72
2022/01/10 01:04:21;;;;;;;4.93;1.80;;;;;;;0.91;100.00;93889.50;5010690;28;20675;-73
2022/01/10 01:07:07;;;;;;;3.03;1.60;;;;;;;0.91;100.00;93884.88;5022644;28;20194;-73
2022/01/10 01:10:06;;;;;;;2.57;1.53;;;;;;;0.81;100.00;93880.53;5011917;28;20274;-73
2022/01/10 01:13:06;;;;;;;2.00;1.23;;;;;;;0.71;100.00;93881.50;5023886;28;20193;-72
2022/01/10 01:24:39;;;;;;;2.47;1.20;;;;;;;0.39;100.00;93891.47;5020871;28;20202;-73
2022/01/10 01:27:25;;;;;;;3.47;1.90;;;;;;;0.44;100.00;93907.81;5008348;28;20226;-73
2022/01/10 01:30:11;;;;;;;3.13;1.50;;;;;;;0.54;100.00;93901.47;5008443;28;20230;-74
2022/01/10 01:32:58;;;;;;;3.20;1.77;;;;;;;0.61;100.00;93909.34;5002401;28;20204;-73
2022/01/10 01:35:45;;;;;;;2.43;1.40;;;;;;;0.62;100.00;93913.56;5012602;28;20257;-73
2022/01/10 01:38:31;;;;;;;3.20;1.77;;;;;;;0.71;100.00;93924.47;5006842;28;20755;-73
2022/01/10 01:41:34;;;;;;;1.60;1.43;;;;;;;0.78;100.00;93928.97;4999586;28;20203;-73
2022/01/10 01:44:21;;;;;;;1.90;1.60;;;;;;;0.83;100.00;93926.50;4999319;28;20203;-73
2022/01/10 01:47:06;;;;;;;2.07;1.73;;;;;;;0.71;100.00;93927.16;5005676;28;20187;-73
2022/01/10 01:49:53;;;;;;;2.40;1.40;;;;;;;0.90;100.00;93939.06;5004734;28;20200;-73
2022/01/10 01:52:40;;;;;;;4.67;1.60;;;;;;;0.86;100.00;93944.50;5010083;28;20202;-73
2022/01/10 01:55:26;;;;;;;3.80;1.57;;;;;;;1.12;100.00;93935.44;5009316;28;20277;-72
2022/01/10 01:58:12;;;;;;;2.00;1.50;;;;;;;0.89;100.00;93946.34;5008595;28;20233;-73
2022/01/10 02:00:58;;;;;;;3.77;1.73;;;;;;;1.14;100.00;93937.72;5003728;28;20205;-74
2022/01/10 02:03:45;;;;;;;3.13;1.60;;;;;;;1.11;100.00;93942.00;5007807;28;20631;-73
2022/01/10 02:06:33;;;;;;;2.13;1.37;;;;;;;0.90;100.00;93947.84;5002011;28;20199;-73
2022/01/10 02:09:19;;;;;;;4.23;1.23;;;;;;;1.05;100.00;93948.31;5003458;28;20688;-74
2022/01/10 02:12:09;;;;;;;1.00;0.90;;;;;;;0.86;100.00;93951.81;5004064;28;20199;-74
2022/01/10 02:14:55;;;;;;;2.93;1.33;;;;;;;0.97;100.00;93955.00;4986575;28;20566;-74
2022/01/10 02:17:48;;;;;;;2.60;1.20;;;;;;;0.76;100.00;93953.56;5007829;28;20254;-73
2022/01/10 02:20:34;;;;;;;1.17;1.07;;;;;;;0.73;100.00;93967.06;5000120;28;20684;-74
2022/01/10 02:23:21;;;;;;;2.27;1.20;;;;;;;0.70;100.00;93967.88;5006377;28;20208;-72
2022/01/10 02:26:15;;;;;;;3.77;1.70;;;;;;;1.08;100.00;93979.72;5003187;28;20672;-73
2022/01/10 02:29:01;;;;;;;1.43;1.30;;;;;;;1.18;100.00;93982.19;5007336;28;20207;-73
2022/01/10 02:31:47;;;;;;;2.53;1.83;;;;;;;1.09;100.00;93984.69;5007103;28;20199;-73
2022/01/10 02:34:33;;;;;;;3.30;2.20;;;;;;;1.19;100.00;93985.59;5005949;28;20234;-74
2022/01/10 02:37:36;;;;;;;3.80;1.80;;;;;;;0.97;100.00;93995.31;5006244;28;20854;-73
2022/01/10 02:40:28;;;;;;;4.13;2.47;;;;;;;1.02;100.00;93992.13;4992819;28;20195;-73
2022/01/10 02:43:14;;;;;;;2.53;2.00;;;;;;;0.98;100.00;94004.91;5020882;28;20226;-73
2022/01/10 02:46:00;;;;;;;3.40;1.60;;;;;;;0.88;100.00;93997.84;5005861;28;20687;-73
2022/01/10 02:48:46;;;;;;;4.80;2.53;;;;;;;0.91;100.00;93999.69;5004528;28;20212;-73
2022/01/10 02:51:32;;;;;;;4.30;1.80;;;;;;;0.94;100.00;94006.91;4996380;28;20203;-73
2022/01/10 02:54:18;;;;;;;4.60;2.17;;;;;;;0.94;100.00;94017.66;5000875;28;20199;-73
2022/01/10 02:57:04;;;;;;;3.87;2.20;;;;;;;0.90;100.00;94006.97;5008351;28;20203;-72
2022/01/10 02:59:50;;;;;;;3.33;1.87;;;;;;;0.96;100.00;94015.31;5000632;28;20691;-73
2022/01/10 03:02:36;;;;;;;3.17;2.27;;;;;;;0.83;100.00;94007.13;5006585;28;20597;-72
2022/01/10 03:05:24;;;;;;;2.37;1.63;;;;;;;0.89;100.00;94020.84;5002753;28;20213;-74
2022/01/10 03:08:10;;;;;;;3.77;2.60;;;;;;;0.83;100.00;94027.91;5007814;28;20268;-74
2022/01/10 03:10:57;;;;;;;4.63;1.73;;;;;;;1.04;100.00;94020.13;5001953;28;20210;-73
2022/01/10 03:13:42;;;;;;;2.67;1.73;;;;;;;0.78;100.00;94020.31;5020953;28;20312;-73
2022/01/10 03:16:29;;;;;;;2.70;1.90;;;;;;;1.00;100.00;94029.44;5001487;28;20203;-73
2022/01/10 03:19:15;;;;;;;2.87;2.10;;;;;;;0.83;100.00;94025.94;5018561;28;20223;-74
2022/01/10 03:22:01;;;;;;;2.17;1.80;;;;;;;0.92;100.00;94031.53;5015071;28;20219;-73
2022/01/10 03:24:47;;;;;;;5.50;2.03;;;;;;;0.70;100.00;94035.81;4990098;28;20206;-73
2022/01/10 03:27:34;;;;;;;2.63;1.70;;;;;;;0.62;100.00;94044.44;5001426;28;20206;-73
2022/01/10 03:30:20;;;;;;;3.90;1.87;;;;;;;0.74;100.00;94041.13;5008315;28;20194;-73
2022/01/10 03:33:08;;;;;;;5.43;1.77;;;;;;;0.98;100.00;94043.31;5006521;28;20307;-74
2022/01/10 03:35:56;;;;;;;2.40;1.80;;;;;;;1.10;100.00;94041.91;5001235;28;20294;-73
2022/01/10 03:38:42;;;;;;;3.87;2.07;;;;;;;1.15;100.00;94052.16;5000552;28;20704;-73
2022/01/10 03:41:29;;;;;;;4.07;2.37;;;;;;;1.24;100.00;94053.09;5004339;28;20212;-73
2022/01/10 03:44:16;;;;;;;2.80;2.00;;;;;;;1.19;100.00;94048.22;5003885;28;20265;-74
2022/01/10 03:47:02;;;;;;;2.10;1.90;;;;;;;0.99;100.00;94060.19;5005398;28;20203;-75
2022/01/10 03:49:49;;;;;;;1.97;1.50;;;;;;;0.83;100.00;94068.94;5004358;28;20204;-74
2022/01/10 03:52:35;;;;;;;3.43;1.97;;;;;;;0.80;100.00;94060.94;5005554;28;20223;-74
2022/01/10 03:55:21;;;;;;;3.03;1.57;;;;;;;0.77;100.00;94069.84;5003935;28;21037;-73
2022/01/10 03:58:07;;;;;;;2.10;1.90;;;;;;;0.68;100.00;94072.34;4993473;28;20381;-74
2022/01/10 04:00:53;;;;;;;4.83;1.97;;;;;;;0.55;100.00;94079.50;5001289;28;20208;-75
2022/01/10 04:03:40;;;;;;;5.37;1.90;;;;;;;0.45;100.00;94104.63;5015698;28;20196;-73
2022/01/10 04:06:30;;;;;;;3.97;2.17;;;;;;;0.52;100.00;94074.97;5006598;28;20255;-72
2022/01/10 04:09:21;;;;;;;2.50;1.87;;;;;;;0.51;100.00;94078.81;5001208;28;20227;-73
2022/01/10 04:12:07;;;;;;;2.13;1.93;;;;;;;0.97;100.00;94089.41;5008249;28;20218;-73
2022/01/10 04:14:53;;;;;;;2.27;1.80;;;;;;;0.81;100.00;94090.13;5000226;28;20203;-73
2022/01/10 04:17:39;;;;;;;3.77;2.50;;;;;;;0.82;100.00;94101.59;5023708;28;20223;-73
2022/01/10 04:20:26;;;;;;;3.07;2.10;;;;;;;0.52;100.00;94091.84;5009727;28;20226;-74
2022/01/10 04:23:14;;;;;;;2.17;1.60;;;;;;;0.71;100.00;94093.75;4991656;28;20199;-74
2022/01/10 04:26:01;;;;;;;4.53;1.80;;;;;;;0.60;100.00;94093.22;4996739;28;20220;-73
2022/01/10 04:28:50;;;;;;;3.30;1.87;;;;;;;0.50;100.00;94085.34;5010310;28;20207;-73
2022/01/10 04:31:36;;;;;;;4.97;1.77;;;;;;;0.45;100.00;94094.66;5008546;28;20230;-72
2022/01/10 04:34:22;;;;;;;2.80;1.70;;;;;;;0.37;100.00;94106.69;5004983;28;20239;-73
2022/01/10 04:37:08;;;;;;;3.50;2.20;;;;;;;0.42;100.00;94092.03;5008310;28;20215;-74
2022/01/10 04:39:55;;;;;;;2.97;1.73;;;;;;;0.46;100.00;94103.47;5009829;28;20203;-74
2022/01/10 04:42:41;;;;;;;3.23;2.00;;;;;;;0.46;100.00;94109.59;4989907;28;20199;-74
2022/01/10 04:45:28;;;;;;;3.23;2.00;;;;;;;0.47;100.00;94113.81;5007873;28;20569;-74
2022/01/10 04:48:17;;;;;;;4.73;2.10;;;;;;;0.49;100.00;94119.53;5008095;28;20219;-74
2022/01/10 04:51:15;;;;;;;4.53;2.27;;;;;;;0.66;100.00;94126.47;5006249;28;20199;-74
2022/01/10 04:54:01;;;;;;;2.60;2.00;;;;;;;0.97;100.00;94127.78;5006934;28;20529;-74
2022/01/10 04:56:48;;;;;;;3.37;2.43;;;;;;;1.03;100.00;94128.84;5010181;28;20283;-74
2022/01/10 04:59:38;;;;;;;4.37;2.20;;;;;;;0.99;100.00;94144.28;5009201;28;20269;-73
2022/01/10 05:02:24;;;;;;;2.77;2.10;;;;;;;0.97;100.00;94143.94;5008183;28;20195;-74
2022/01/10 05:05:10;;;;;;;6.07;1.80;;;;;;;0.97;100.00;94143.16;5003533;28;20196;-74
2022/01/10 05:07:57;;;;;;;3.07;2.10;;;;;;;0.99;100.00;94165.78;5009675;28;20229;-74
2022/01/10 05:10:44;;;;;;;3.87;2.30;;;;;;;0.83;100.00;94162.25;5004820;28;20191;-74
2022/01/10 05:13:30;;;;;;;5.40;1.90;;;;;;;1.00;100.00;94164.59;5011878;28;20249;-74
2022/01/10 05:16:18;;;;;;;4.17;2.53;;;;;;;0.99;100.00;94165.78;5008796;28;20195;-73
2022/01/10 05:19:04;;;;;;;3.10;1.73;;;;;;;0.72;100.00;94175.88;5009597;28;20278;-73
2022/01/10 05:21:50;;;;;;;3.43;2.23;;;;;;;0.67;100.00;94180.97;5013140;28;21345;-74
2022/01/10 05:24:36;;;;;;;3.40;1.90;;;;;;;0.68;100.00;94194.00;4998720;28;20195;-74
2022/01/10 05:27:22;;;;;;;2.70;2.00;;;;;;;0.61;100.00;94193.38;5014678;28;20203;-75
2022/01/10 05:30:10;;;;;;;3.10;2.10;;;;;;;0.52;100.00;94187.78;5006367;28;20718;-72
2022/01/10 05:32:56;;;;;;;7.73;2.30;;;;;;;0.63;100.00;94191.78;5009043;28;20199;-73
2022/01/10 05:35:49;;;;;;;3.33;1.97;;;;;;;0.85;100.00;94173.34;5012935;28;20222;-73
2022/01/10 05:38:34;;;;;;;4.70;2.37;;;;;;;1.15;100.00;94189.28;5009601;28;20243;-73
2022/01/10 05:41:22;;;;;;;2.40;2.00;;;;;;;0.96;100.00;94201.56;5007348;28;20557;-74
2022/01/10 05:44:09;;;;;;;3.17;2.50;;;;;;;1.02;100.00;94204.50;5013116;28;20676;-72
2022/01/10 05:47:01;;;;;;;3.77;3.20;;;;;;;0.81;100.00;94216.44;5008845;28;20198;-74
2022/01/10 05:49:48;;;;;;;5.03;2.67;;;;;;;1.12;100.00;94212.38;5008488;28;20281;-72
2022/01/10 05:52:39;;;;;;;4.23;3.13;;;;;;;0.96;100.00;94216.91;5005802;28;20195;-73
2022/01/10 05:55:26;;;;;;;5.33;3.83;;;;;;;0.84;100.00;94215.59;4999082;28;20202;-74
2022/01/10 05:58:13;;;;;;;6.30;3.60;;;;;;;0.91;100.00;94220.84;5010356;28;20604;-74
2022/01/10 06:01:00;;;;;;;8.27;4.33;;;;;;;1.00;100.00;94225.69;4995749;28;20199;-75
2022/01/10 06:03:46;;;;;;;7.43;4.23;;;;;;;1.14;100.00;94228.84;5025946;28;20253;-74
2022/01/10 06:06:33;;;;;;;8.00;5.60;;;;;;;1.20;100.00;94231.81;5009007;28;20209;-74
2022/01/10 06:09:19;;;;;;;13.63;6.10;;;;;;;1.24;100.00;94229.81;5002971;28;20685;-74
2022/01/10 06:12:06;;;;;;;6.23;4.57;;;;;;;1.10;100.00;94236.22;5008054;28;20286;-73
2022/01/10 06:14:52;;;;;;;7.63;4.27;;;;;;;0.98;100.00;94238.78;4994750;28;20203;-72
2022/01/10 06:17:38;;;;;;;6.23;4.60;;;;;;;0.92;100.00;94243.09;5003196;28;20286;-74
2022/01/10 06:20:25;;;;;;;6.43;4.40;;;;;;;0.87;100.00;94244.34;5008963;28;20203;-73
2022/01/10 06:23:12;;;;;;;9.60;4.97;;;;;;;0.98;100.00;94236.84;5015180;28;20668;-73
2022/01/10 06:25:58;;;;;;;6.80;5.10;;;;;;;0.94;100.00;94259.56;5007865;28;20233;-72
2022/01/10 06:28:45;;;;;;;7.93;5.20;;;;;;;0.91;100.00;94263.84;5023033;28;20684;-73
2022/01/10 06:31:31;;;;;;;6.37;4.77;;;;;;;0.99;100.00;94278.69;4996190;28;20199;-73
2022/01/10 06:34:25;;;;;;;12.60;6.10;;;;;;;0.94;100.00;94281.06;5030188;28;20315;-72
2022/01/10 06:37:11;;;;;;;9.03;5.37;;;;;;;0.76;100.00;94276.03;5005001;28;20191;-73
2022/01/10 06:40:05;;;;;;;9.60;5.60;;;;;;;0.70;100.00;94298.38;5007768;28;20203;-73
2022/01/10 06:42:51;;;;;;;8.37;5.47;;;;;;;0.76;100.00;94299.44;4996623;28;20195;-73
2022/01/10 06:45:39;;;;;;;6.17;4.50;;;;;;;0.77;100.00;94304.41;5007870;28;20565;-73
2022/01/10 06:48:26;;;;;;;7.30;4.97;;;;;;;0.77;100.00;94314.38;5008085;28;20226;-73
2022/01/10 06:51:12;;;;;;;10.03;5.40;;;;;;;0.71;100.00;94322.13;5007134;28;20336;-73
2022/01/10 06:54:01;;;;;;;10.03;6.00;;;;;;;0.73;100.00;94330.56;5020023;28;20199;-73
2022/01/10 06:56:48;;;;;;;12.03;5.67;;;;;;;0.72;100.00;94325.59;5011555;28;20248;-73
2022/01/10 06:59:34;;;;;;;9.67;5.47;;;;;;;0.65;100.00;94337.22;5000500;28;20302;-74
2022/01/10 07:02:20;;;;;;;9.07;5.80;;;;;;;0.59;100.00;94338.84;5007646;28;20684;-73
2022/01/10 07:05:09;;;;;;;8.20;6.10;;;;;;;0.50;100.00;94337.84;4997362;28;20207;-73
2022/01/10 07:07:55;;;;;;;7.93;6.30;;;;;;;0.52;100.00;94352.38;5010818;28;20226;-73
2022/01/10 07:10:55;;;;;;;9.63;6.60;;;;;;;0.56;100.00;94365.78;5002036;28;20204;-73
2022/01/10 07:13:44;;;;;;;11.73;6.67;;;;;;;0.46;100.00;94370.13;5012498;28;20676;-73
2022/01/10 07:16:31;;;;;;;12.47;7.40;;;;;;;0.47;100.00;94365.50;5007873;28;20195;-73
2022/01/10 07:19:23;;;;;;;10.97;7.97;;;;;;;0.54;100.00;94374.25;4986138;28;20216;-73
2022/01/10 07:22:09;;;;;;;10.50;7.57;;;;;;;0.58;100.00;94372.25;4995807;28;20241;-73
2022/01/10 07:24:55;;;;;;;15.30;8.33;;;;;;;0.50;100.00;94383.50;5008637;28;20265;-73
2022/01/10 07:27:41;;;;;;;13.73;8.70;;;;;;;0.49;100.00;94382.75;4996260;28;20218;-73
2022/01/10 07:30:30;;;;;;;13.00;8.30;;;;;;;0.75;100.00;94389.25;5018765;28;20187;-73
2022/01/10 07:33:16;;;;;;;15.03;8.27;;;;;;;0.69;100.00;94398.97;5024423;28;20214;-73
2022/01/10 07:36:02;;;;;;;19.53;9.60;;;;;;;0.58;100.00;94414.47;4995572;28;20200;-73
2022/01/10 07:38:51;;;;;;;15.90;8.53;;;;;;;0.57;100.00;94410.25;5001282;28;20625;-73
2022/01/10 07:41:37;;;;;;;14.70;9.53;;;;;;;0.56;100.00;94414.88;5010292;28;20206;-73
2022/01/10 07:44:27;;;;;;;21.40;11.07;;;;;;;0.55;100.00;94417.97;5010513;28;20207;-74
2022/01/10 07:47:14;;;;;;;15.13;9.17;;;;;;;0.64;100.00;94416.31;5020650;28;20215;-74
2022/01/10 07:49:59;;;;;;;12.03;8.50;;;;;;;0.68;100.00;94432.38;5001782;28;20200;-74
2022/01/10 07:52:45;;;;;;;17.90;8.30;;;;;;;0.63;100.00;94425.53;5024867;28;20199;-74
2022/01/10 07:55:31;;;;;;;13.33;8.33;;;;;;;0.74;100.00;94430.75;5026311;28;20192;-74
2022/01/10 07:58:17;;;;;;;14.67;9.53;;;;;;;0.86;100.00;94440.94;5030279;28;20230;-73
2022/01/10 08:01:04;;;;;;;12.63;8.37;;;;;;;0.86;100.00;94440.94;5016522;28;20212;-74
2022/01/10 08:03:52;;;;;;;11.67;8.47;;;;;;;0.65;100.00;94446.59;5019019;28;20230;-74
2022/01/10 08:06:37;;;;;;;12.57;8.67;;;;;;;0.63;100.00;94448.97;5011199;28;20218;-74
2022/01/10 08:09:23;;;;;;;14.77;9.37;;;;;;;0.60;100.00;94458.56;5026003;28;20294;-74
2022/01/10 08:12:10;;;;;;;11.93;7.60;;;;;;;0.65;100.00;94447.38;5030735;28;20625;-73
2022/01/10 08:14:55;;;;;;;12.93;8.53;;;;;;;0.64;100.00;94464.69;5025280;28;20204;-74
2022/01/10 08:17:42;;;;;;;12.27;8.27;;;;;;;0.61;100.00;94518.44;5023685;28;20218;-73
2022/01/10 08:20:28;;;;;;;13.50;9.10;;;;;;;0.64;100.00;94469.28;5002383;28;20200;-74
2022/01/10 08:23:14;;;;;;;13.57;9.07;;;;;;;0.63;100.00;94486.56;5010350;28;20744;-74
2022/01/10 08:26:00;;;;;;;14.13;9.13;;;;;;;0.68;100.00;94480.75;5008889;28;20204;-73
2022/01/10 08:28:46;;;;;;;14.17;9.73;;;;;;;0.84;100.00;94488.97;5027266;28;20218;-74
2022/01/10 08:31:33;;;;;;;20.37;10.10;;;;;;;0.95;100.00;94487.66;5026014;28;20218;-74
2022/01/10 08:34:19;;;;;;;16.50;10.37;;;;;;;1.00;100.00;94497.19;5010491;28;20572;-73
2022/01/10 08:37:05;;;;;;;17.63;9.97;;;;;;;0.97;100.00;94498.00;5002866;28;20191;-74
2022/01/10 08:39:51;;;;;;;14.57;9.37;;;;;;;0.87;100.00;94494.28;5026176;28;20219;-74
2022/01/10 08:42:37;;;;;;;14.07;9.20;;;;;;;1.05;100.00;94510.19;5012880;28;20203;-74
2022/01/10 08:45:23;;;;;;;20.17;11.23;;;;;;;1.07;100.00;94502.47;5026192;28;20707;-74
2022/01/10 08:48:09;;;;;;;27.37;12.30;;;;;;;1.05;100.00;94513.63;5027379;28;20226;-74
2022/01/10 08:50:55;;;;;;;14.53;9.33;;;;;;;1.01;100.00;94509.47;5025602;28;20282;-74
2022/01/10 08:53:41;;;;;;;12.70;8.73;;;;;;;1.05;100.00;94526.31;5032174;28;20202;-74
2022/01/10 08:56:27;;;;;;;14.23;8.67;;;;;;;1.04;100.00;94528.25;5030203;28;20191;-73
2022/01/10 08:59:13;;;;;;;23.60;10.33;;;;;;;1.06;100.00;94547.41;5009551;28;20700;-74
2022/01/10 09:01:59;;;;;;;15.20;10.13;;;;;;;0.92;100.00;94544.91;5030021;28;20195;-73
2022/01/10 09:04:46;;;;;;;15.30;10.33;;;;;;;0.99;100.00;94552.13;5015424;28;20206;-74
2022/01/10 09:07:32;;;;;;;20.73;10.57;;;;;;;1.02;100.00;94557.44;5020925;28;20285;-74
2022/01/10 09:10:19;;;;;;;22.33;10.97;;;;;;;1.07;100.00;94567.75;5019765;28;20739;-73
2022/01/10 09:13:07;;;;;;;15.50;10.40;;;;;;;1.11;100.00;94563.09;5024921;28;20682;-73
2022/01/10 09:15:53;;;;;;;20.10;12.10;;;;;;;1.19;100.00;94555.69;5023246;28;20218;-73
2022/01/10 09:18:39;;;;;;;25.93;12.47;;;;;;;1.36;100.00;94568.13;5029543;28;20219;-73
2022/01/10 09:21:25;;;;;;;25.77;12.10;;;;;;;1.27;100.00;94577.88;5018673;28;20659;-73
2022/01/10 09:24:11;;;;;;;19.03;11.63;;;;;;;1.04;100.00;94581.25;5007440;28;20233;-73
2022/01/10 09:26:57;;;;;;;20.23;11.97;;;;;;;0.99;100.00;94584.38;5026978;28;20190;-73
2022/01/10 09:29:45;;;;;;;22.50;12.83;;;;;;;1.02;100.00;94586.25;5008501;28;20211;-72
2022/01/10 09:32:31;;;;;;;19.57;12.57;;;;;;;1.01;100.00;94592.81;5021212;28;20207;-73
2022/01/10 09:35:17;;;;;;;20.70;13.03;;;;;;;1.18;100.00;94599.88;5016545;28;20195;-73
2022/01/10 09:38:03;;;;;;;23.70;13.57;;;;;;;1.14;100.00;94597.25;5008209;28;20285;-73
2022/01/10 09:40:49;;;;;;;19.77;12.97;;;;;;;1.17;100.00;94599.13;5024890;28;20195;-73
2022/01/10 09:43:35;;;;;;;21.43;12.27;;;;;;;1.29;100.00;94599.75;5020104;28;20668;-73
2022/01/10 09:46:21;;;;;;;16.27;11.27;;;;;;;1.19;100.00;94609.47;5021017;28;20274;-73
2022/01/10 09:49:07;;;;;;;21.90;13.07;;;;;;;1.00;100.00;94608.16;5023010;28;20222;-73
2022/01/10 09:51:53;;;;;;;18.83;13.07;;;;;;;1.11;100.00;94608.03;5011392;28;20217;-73
2022/01/10 09:54:39;;;;;;;18.03;13.17;;;;;;;1.10;100.00;94609.22;5006091;28;20694;-73
2022/01/10 09:57:25;;;;;;;21.53;13.27;;;;;;;1.31;100.00;94614.31;5023607;28;20261;-73
2022/01/10 10:00:12;;;;;;;21.90;12.63;;;;;;;1.37;100.00;94611.94;5015055;28;20207;-73
2022/01/10 10:02:58;;;;;;;18.70;11.83;;;;;;;1.39;100.00;94613.06;5027450;28;20882;-74
2022/01/10 10:05:44;;;;;;;18.30;11.10;;;;;;;1.45;100.00;94621.44;5022938;28;20556;-74
2022/01/10 10:08:30;;;;;;;15.87;9.83;;;;;;;1.53;100.00;94626.31;5010281;28;20218;-74
2022/01/10 10:11:16;;;;;;;11.27;9.03;;;;;;;1.43;100.00;94623.75;5025208;28;20246;-73
2022/01/10 10:14:04;;;;;;;15.90;9.17;;;;;;;1.43;100.00;94621.84;5012417;28;20195;-73
2022/01/10 10:16:52;;;;;;;10.93;7.70;;;;;;;1.56;100.00;94635.50;5026242;28;20199;-73
2022/01/10 10:19:38;;;;;;;11.87;8.17;;;;;;;1.79;100.00;94620.16;5025401;28;20223;-74
2022/01/10 10:22:25;;;;;;;14.40;8.77;;;;;;;2.02;100.00;94638.28;5004190;28;20309;-74
2022/01/10 10:25:13;;;;;;;13.23;7.83;;;;;;;2.25;100.00;94646.38;5019595;28;20200;-73
2022/01/10 10:27:59;;;;;;;13.27;7.20;;;;;;;2.21;100.00;94645.66;5023964;28;20219;-74
2022/01/10 10:30:45;;;;;;;10.50;7.20;;;;;;;2.04;100.00;94650.16;5021371;28;20304;-74
2022/01/10 10:33:31;;;;;;;13.73;6.83;;;;;;;1.84;100.00;94653.94;5018711;28;20209;-74
2022/01/10 10:36:18;;;;;;;11.73;7.50;;;;;;;1.64;100.00;94669.22;5000987;28;20206;-73
2022/01/10 10:39:07;;;;;;;13.37;9.40;;;;;;;1.51;100.00;94679.75;5022921;28;20236;-74
2022/01/10 10:41:55;;;;;;;15.53;8.97;;;;;;;1.42;100.00;94676.06;5021134;28;20229;-74
2022/01/10 10:44:45;;;;;;;16.97;9.03;;;;;;;1.38;100.00;94676.09;5024505;28;20319;-74
2022/01/10 10:47:35;;;;;;;22.97;9.97;;;;;;;1.44;100.00;94676.41;5022934;28;20209;-74
2022/01/10 10:50:23;;;;;;;17.00;10.73;;;;;;;1.34;100.00;94690.75;5029052;28;20203;-74
2022/01/10 10:53:13;;;;;;;16.13;11.27;;;;;;;1.28;100.00;94695.81;5006684;28;20217;-74
2022/01/10 10:56:02;;;;;;;17.47;11.40;;;;;;;1.01;100.00;94695.75;5022008;28;20230;-74
2022/01/10 10:58:48;;;;;;;15.07;11.60;;;;;;;0.94;100.00;94703.88;5023523;28;20262;-73
2022/01/10 11:01:37;;;;;;;20.50;13.97;;;;;;;1.03;100.00;94698.03;5026131;28;20588;-74
2022/01/10 11:04:24;;;;;;;20.73;13.90;;;;;;;1.11;100.00;94694.09;5022579;28;20260;-73
2022/01/10 11:07:10;;;;;;;20.83;14.23;;;;;;;1.22;100.00;94695.50;5024655;28;20560;-73
2022/01/10 11:09:57;;;;;;;19.03;13.73;;;;;;;1.32;100.00;94696.53;5012219;28;20207;-74
2022/01/10 11:12:50;;;;;;;27.67;14.60;;;;;;;1.42;100.00;94684.13;5021392;28;20191;-74
2022/01/10 11:15:40;;;;;;;21.70;14.90;;;;;;;1.71;100.00;94706.81;5023947;28;20187;-74
2022/01/10 11:18:26;;;;;;;19.80;13.37;;;;;;;1.92;100.00;94704.59;5020215;28;20306;-74
2022/01/10 11:21:13;;;;;;;21.60;12.47;;;;;;;2.05;100.00;94713.63;5026177;28;20203;-74
2022/01/10 11:23:59;;;;;;;16.00;12.07;;;;;;;1.96;100.00;94718.78;5028530;28;20698;-74
2022/01/10 11:26:46;;;;;;;17.43;12.63;;;;;;;2.12;100.00;94721.59;5010455;28;20233;-74
2022/01/10 11:29:41;;;;;;;19.93;12.33;;;;;;;2.92;100.00;94720.72;5000334;28;20253;-74
2022/01/10 11:33:16;;;;;;;15.83;11.60;;;;;;;3.95;100.00;94715.59;5017176;28;20205;-74
2022/01/10 11:36:08;;;;;;;18.10;10.80;;;;;;;3.73;100.00;94723.34;5014021;28;20240;-74
2022/01/10 11:38:59;;;;;;;15.37;9.77;;;;;;;4.14;100.00;94727.53;5028385;28;20309;-74
2022/01/10 11:41:45;;;;;;;16.53;9.93;;;;;;;2.80;100.00;94732.09;5015211;28;20265;-74
2022/01/10 11:44:31;;;;;;;11.67;9.43;;;;;;;1.90;100.00;94739.22;5015338;28;20229;-74
2022/01/10 11:47:17;;;;;;;13.07;9.17;;;;;;;1.71;100.00;94744.50;5024149;28;20263;-74
2022/01/10 11:50:24;;;;;;;14.80;10.13;;;;;;;1.53;100.00;94742.00;5011046;28;20191;-74
2022/01/10 11:53:10;;;;;;;18.33;11.47;;;;;;;1.60;100.00;94752.69;5013499;28;20196;-74
2022/01/10 11:55:56;;;;;;;20.23;11.37;;;;;;;1.57;100.00;94747.34;5025067;28;20192;-74
2022/01/10 11:59:06;;;;;;;18.80;12.07;;;;;;;1.70;100.00;94753.72;5028159;28;20219;-74
2022/01/10 12:02:04;;;;;;;18.00;12.03;;;;;;;1.64;100.00;94753.44;5030375;28;20668;-74
2022/01/10 12:04:53;;;;;;;19.83;11.77;;;;;;;1.63;100.00;94754.56;5028960;28;20199;-74
2022/01/10 12:07:39;;;;;;;19.93;11.80;;;;;;;1.68;100.00;94756.81;5011703;28;20207;-74
2022/01/10 12:10:26;;;;;;;16.77;10.77;;;;;;;1.70;100.00;94764.47;5010930;28;20196;-75
2022/01/10 12:13:12;;;;;;;14.00;9.43;;;;;;;1.49;100.00;94762.06;5030051;28;20219;-74
2022/01/10 12:15:59;;;;;;;18.33;11.40;;;;;;;1.42;100.00;94762.91;5028171;28;20261;-74
2022/01/10 12:18:46;;;;;;;17.60;10.97;;;;;;;1.46;100.00;94774.38;5018167;28;20695;-74
2022/01/10 12:21:33;;;;;;;19.37;10.73;;;;;;;1.33;100.00;94765.31;5011513;28;20237;-74
2022/01/10 12:24:19;;;;;;;20.60;10.53;;;;;;;1.38;100.00;94775.63;5023786;28;20203;-73
2022/01/10 12:27:07;;;;;;;18.47;10.93;;;;;;;1.57;100.00;94780.41;5013587;28;20388;-74
2022/01/10 12:29:54;;;;;;;16.97;10.33;;;;;;;1.60;100.00;94785.00;5026647;28;20241;-74
2022/01/10 12:32:41;;;;;;;18.47;10.60;;;;;;;1.62;100.00;94788.06;5022817;28;20199;-74
2022/01/10 12:35:28;;;;;;;16.60;11.03;;;;;;;1.67;100.00;94789.53;5015088;28;20202;-74
2022/01/10 12:38:19;;;;;;;15.93;9.97;;;;;;;1.63;100.00;94794.94;5012072;28;20235;-74
2022/01/10 12:41:05;;;;;;;13.50;10.23;;;;;;;1.73;100.00;94796.00;5029928;28;20200;-74
2022/01/10 12:43:51;;;;;;;19.63;10.90;;;;;;;1.67;100.00;94803.75;5007656;28;20202;-74
2022/01/10 12:46:38;;;;;;;17.40;10.13;;;;;;;1.71;100.00;94806.41;5025719;28;20274;-73
2022/01/10 12:49:24;;;;;;;15.27;9.30;;;;;;;1.59;100.00;94805.00;5029163;28;20222;-74
2022/01/10 12:52:10;;;;;;;18.23;10.07;;;;;;;1.56;100.00;94813.13;5024032;28;20191;-74
2022/01/10 12:54:56;;;;;;;15.13;9.60;;;;;;;1.48;100.00;94811.69;5009761;28;20199;-74
2022/01/10 12:57:43;;;;;;;18.90;11.00;;;;;;;1.68;100.00;94826.81;5005454;28;20211;-74
2022/01/10 13:00:28;;;;;;;15.60;11.63;;;;;;;1.72;100.00;94827.53;5023145;28;20261;-74
2022/01/10 13:03:16;;;;;;;17.70;11.07;;;;;;;1.71;100.00;94817.94;5024958;28;20210;-74
2022/01/10 13:06:03;;;;;;;14.03;9.97;;;;;;;1.81;100.00;94829.75;5022431;28;20195;-74
2022/01/10 13:08:49;;;;;;;16.40;10.20;;;;;;;1.68;100.00;94837.56;5013391;28;20648;-73
2022/01/10 13:12:01;;;;;;;17.47;9.80;;;;;;;1.53;100.00;94830.81;5027316;28;20203;-73
2022/01/10 13:14:47;;;;;;;17.33;9.47;;;;;;;1.37;100.00;94835.22;5015295;28;20254;-73
2022/01/10 13:17:34;;;;;;;13.10;8.83;;;;;;;1.46;100.00;94857.78;5024001;28;20203;-73